Time;durP1;ratioP1;P1;durP2;ratioP2;P2;SDS_P1;SDS_P2;PMS_P1;PMS_P2;Temp;Humidity;BMP_temperature;BMP_pressure;BME280_temperature;BME280_humidity;BME280_pressure;Samples;Min_cycle;Max_cycle;Signal;HPM_P1;HPM_P2
2022/03/18 00:01:46;;;;;;;10.75;4.97;;;;;;;2.61;nan;103833.84;5095105;28;20028;-50
2022/03/18 00:04:12;;;;;;;9.10;4.38;;;;;;;2.41;nan;103796.50;5095000;28;20391;-50
2022/03/18 00:06:37;;;;;;;10.55;5.03;;;;;;;2.61;nan;103837.34;5095405;28;20023;-50
2022/03/18 00:09:03;;;;;;;18.25;5.40;;;;;;;2.64;nan;103833.97;5077049;28;20039;-49
2022/03/18 00:11:28;;;;;;;14.90;4.43;;;;;;;2.55;nan;103812.75;5095250;28;20036;-46
2022/03/18 00:13:55;;;;;;;9.85;4.50;;;;;;;2.40;nan;103804.19;5094939;28;20032;-48
2022/03/18 00:16:20;;;;;;;12.77;5.18;;;;;;;2.50;nan;103820.34;5094923;28;20501;-48
2022/03/18 00:18:46;;;;;;;17.35;5.20;;;;;;;2.53;nan;103837.78;5095027;28;20067;-51
2022/03/18 00:21:12;;;;;;;12.60;5.18;;;;;;;2.13;nan;103780.41;5094979;28;20024;-51
2022/03/18 00:23:37;;;;;;;8.35;4.88;;;;;;;2.45;nan;103847.78;5094824;28;20051;-50
2022/03/18 00:26:03;;;;;;;9.55;4.57;;;;;;;2.45;nan;103852.13;5094801;28;20028;-50
2022/03/18 00:28:29;;;;;;;11.13;4.88;;;;;;;2.18;nan;103810.09;5094827;28;20494;-51
2022/03/18 00:30:54;;;;;;;8.88;4.15;;;;;;;2.36;nan;103842.19;5094897;28;20075;-52
2022/03/18 00:33:21;;;;;;;10.48;4.30;;;;;;;2.35;nan;103844.69;5094792;28;20117;-50
2022/03/18 00:35:47;;;;;;;9.48;4.38;;;;;;;2.35;nan;103853.38;5094798;28;20036;-49
2022/03/18 00:38:13;;;;;;;8.40;4.53;;;;;;;2.12;nan;103810.69;5094538;28;20051;-48
2022/03/18 00:40:39;;;;;;;13.02;5.13;;;;;;;2.23;nan;103842.38;5094500;28;20132;-49
2022/03/18 00:43:05;;;;;;;15.02;4.70;;;;;;;2.26;nan;103863.31;5094193;28;20071;-50
2022/03/18 00:45:30;;;;;;;15.00;5.05;;;;;;;2.14;nan;103855.81;5094368;28;20028;-50
2022/03/18 00:53:32;;;;;;;13.25;4.95;;;;;;;1.78;nan;103793.34;5049516;28;20032;-50
2022/03/18 00:55:57;;;;;;;13.25;4.93;;;;;;;2.10;nan;103856.47;5094246;28;20032;-51
2022/03/18 00:58:22;;;;;;;11.43;4.68;;;;;;;2.06;nan;103857.16;5076198;28;20434;-54
2022/03/18 01:00:48;;;;;;;10.80;4.45;;;;;;;1.75;nan;103799.28;5094229;28;20475;-51
2022/03/18 01:03:15;;;;;;;10.48;4.60;;;;;;;2.04;nan;103863.94;5094460;28;20475;-51
2022/03/18 01:05:41;;;;;;;14.45;5.75;;;;;;;2.02;nan;103859.50;5094237;28;20028;-50
2022/03/18 01:08:07;;;;;;;10.13;4.53;;;;;;;1.99;nan;103867.13;5094024;28;20046;-51
2022/03/18 01:10:32;;;;;;;11.85;5.07;;;;;;;1.85;nan;103852.56;5075751;28;20123;-52
2022/03/18 01:12:58;;;;;;;12.68;5.38;;;;;;;1.90;nan;103870.16;5075708;28;20077;-52
2022/03/18 01:15:23;;;;;;;12.07;5.22;;;;;;;1.91;nan;103871.94;5075890;28;20043;-54
2022/03/18 01:17:48;;;;;;;13.18;4.93;;;;;;;1.79;nan;103845.34;5093954;28;20039;-51
2022/03/18 01:20:14;;;;;;;19.48;4.97;;;;;;;1.55;nan;103793.06;5093822;28;20039;-49
2022/03/18 01:22:39;;;;;;;13.82;4.95;;;;;;;1.73;nan;103839.84;5075818;28;20501;-52
2022/03/18 01:25:05;;;;;;;13.48;4.50;;;;;;;1.49;nan;103797.06;5093784;28;20062;-48
2022/03/18 01:27:30;;;;;;;12.63;4.65;;;;;;;1.52;nan;103811.06;5092945;28;20379;-50
2022/03/18 01:29:56;;;;;;;10.77;5.05;;;;;;;1.69;nan;103858.69;5093494;28;20043;-50
2022/03/18 01:32:21;;;;;;;11.50;5.55;;;;;;;1.74;nan;103854.63;5093416;28;20042;-49
2022/03/18 01:34:46;;;;;;;12.35;4.72;;;;;;;1.76;nan;103870.25;5093586;28;20028;-50
2022/03/18 01:37:12;;;;;;;11.77;4.80;;;;;;;1.74;nan;103872.78;5093470;28;20067;-52
2022/03/18 01:39:37;;;;;;;9.95;4.75;;;;;;;1.63;nan;103863.56;5093367;28;20119;-50
2022/03/18 01:42:02;;;;;;;14.57;5.13;;;;;;;1.67;nan;103863.78;5093075;28;20514;-49
2022/03/18 01:44:28;;;;;;;13.48;5.30;;;;;;;1.57;nan;103850.25;5075218;28;20189;-52
2022/03/18 01:46:53;;;;;;;13.13;5.70;;;;;;;1.36;nan;103813.69;5074952;28;20028;-48
2022/03/18 01:49:18;;;;;;;9.60;5.05;;;;;;;1.66;nan;103871.50;5093228;28;20630;-53
2022/03/18 01:51:44;;;;;;;10.82;4.57;;;;;;;1.59;nan;103865.09;5093086;28;20361;-47
2022/03/18 01:56:53;;;;;;;9.00;4.30;;;;;;;1.58;nan;103873.69;5092981;28;20051;-49
2022/03/18 01:59:19;;;;;;;10.50;5.20;;;;;;;1.57;nan;103866.72;5074697;28;20040;-51
2022/03/18 02:01:44;;;;;;;14.60;4.60;;;;;;;1.52;nan;103849.09;5093081;28;20035;-52
2022/03/18 02:04:10;;;;;;;14.65;5.30;;;;;;;1.51;nan;103853.44;5092876;28;20459;-47
2022/03/18 02:06:35;;;;;;;10.60;4.95;;;;;;;1.53;nan;103863.88;5093039;28;20089;-48
2022/03/18 02:09:01;;;;;;;11.75;5.03;;;;;;;1.42;nan;103842.56;5092853;28;20579;-52
2022/03/18 02:11:26;;;;;;;12.05;5.25;;;;;;;1.49;nan;103860.22;5074864;28;20036;-52
2022/03/18 02:14:00;;;;;;;10.05;5.25;;;;;;;1.48;nan;103863.66;5092912;28;20440;-50
2022/03/18 02:16:26;;;;;;;10.52;5.20;;;;;;;1.10;nan;103796.75;5092919;28;20040;-49
2022/03/18 02:18:51;;;;;;;12.35;5.43;;;;;;;1.39;nan;103864.84;5092695;28;20028;-48
2022/03/18 02:21:17;;;;;;;10.52;5.15;;;;;;;1.22;nan;103842.31;5092685;28;20035;-48
2022/03/18 02:23:43;;;;;;;17.63;5.32;;;;;;;1.43;nan;103879.78;5092472;28;20114;-48
2022/03/18 02:26:09;;;;;;;14.60;5.65;;;;;;;1.42;nan;103883.19;5074600;28;20040;-48
2022/03/18 02:28:35;;;;;;;9.45;5.32;;;;;;;1.07;nan;103824.22;5092424;28;20036;-51
2022/03/18 02:31:00;;;;;;;14.85;5.63;;;;;;;1.41;nan;103905.66;5092152;28;20074;-52
2022/03/18 02:33:25;;;;;;;10.45;5.38;;;;;;;1.42;nan;103898.75;5092690;28;20070;-48
2022/03/18 02:35:53;;;;;;;13.95;5.55;;;;;;;1.38;nan;103886.41;5092313;28;20080;-49
2022/03/18 02:38:18;;;;;;;9.65;5.70;;;;;;;1.24;nan;103871.81;5092233;28;20210;-57
2022/03/18 02:40:44;;;;;;;12.90;5.47;;;;;;;1.35;nan;103894.94;5092297;28;20142;-48
2022/03/18 02:43:09;;;;;;;13.02;6.10;;;;;;;1.34;nan;103890.59;5074425;28;20030;-50
2022/03/18 02:45:34;;;;;;;12.02;4.82;;;;;;;1.05;nan;103849.19;5092569;28;20093;-49
2022/03/18 02:48:00;;;;;;;17.08;5.32;;;;;;;1.24;nan;103896.06;5057502;28;20031;-49
2022/03/18 02:50:25;;;;;;;10.50;4.95;;;;;;;0.90;nan;103830.22;5092165;28;20024;-52
2022/03/18 02:52:50;;;;;;;12.68;4.95;;;;;;;1.28;nan;103899.72;5092120;28;20040;-52
2022/03/18 02:55:18;;;;;;;11.63;5.57;;;;;;;1.26;nan;103904.81;5092182;28;20072;-50
2022/03/18 02:57:44;;;;;;;15.60;5.45;;;;;;;1.25;nan;103910.84;5074508;28;20088;-51
2022/03/18 03:00:10;;;;;;;8.25;5.32;;;;;;;1.14;nan;103905.06;5092351;28;20040;-51
2022/03/18 03:02:35;;;;;;;14.50;5.72;;;;;;;0.92;nan;103868.38;5057455;28;20195;-50
2022/03/18 03:08:00;;;;;;;14.20;6.30;;;;;;;1.18;nan;103915.59;5092186;28;20131;-53
2022/03/18 03:10:30;;;;;;;11.25;5.30;;;;;;;0.75;nan;103858.78;5092280;28;20039;-53
2022/03/18 03:12:57;;;;;;;12.07;5.72;;;;;;;1.10;nan;103920.38;5074001;28;20032;-54
2022/03/18 03:15:23;;;;;;;14.15;6.05;;;;;;;1.16;nan;103920.72;5057596;28;20032;-52
2022/03/18 03:17:48;;;;;;;12.32;5.88;;;;;;;1.08;nan;103922.88;5073983;28;20407;-50
2022/03/18 03:20:13;;;;;;;11.23;5.85;;;;;;;1.12;nan;103929.13;5091100;28;20036;-51
2022/03/18 03:22:39;;;;;;;11.27;5.32;;;;;;;0.67;nan;103857.47;5092145;28;20043;-49
2022/03/18 03:25:05;;;;;;;11.77;5.15;;;;;;;1.10;nan;103926.47;5074199;28;20067;-51
2022/03/18 03:27:31;;;;;;;10.70;6.22;;;;;;;1.09;nan;103919.47;5091921;28;20040;-49
2022/03/18 03:30:00;;;;;;;9.07;5.50;;;;;;;1.01;nan;103909.50;5091853;28;20140;-48
2022/03/18 03:32:27;;;;;;;14.77;6.43;;;;;;;0.65;nan;103840.03;5073738;28;20028;-50
2022/03/18 03:34:54;;;;;;;8.10;5.57;;;;;;;0.67;nan;103856.56;5091643;28;20066;-55
2022/03/18 03:37:19;;;;;;;13.88;5.05;;;;;;;0.68;nan;103879.97;5074097;28;20027;-51
2022/03/18 03:39:44;;;;;;;10.68;5.28;;;;;;;0.59;nan;103845.75;5073874;28;20530;-50
2022/03/18 03:42:10;;;;;;;8.05;5.53;;;;;;;0.67;nan;103873.03;5073795;28;20049;-50
2022/03/18 03:44:35;;;;;;;10.30;5.20;;;;;;;1.00;nan;103929.34;5091880;28;20039;-50
2022/03/18 03:47:00;;;;;;;12.05;6.53;;;;;;;1.00;nan;103937.13;5091618;28;20036;-51
2022/03/18 03:49:26;;;;;;;10.48;5.60;;;;;;;0.91;nan;103922.75;5092635;28;20063;-50
2022/03/18 03:51:51;;;;;;;9.52;6.07;;;;;;;0.96;nan;103952.44;5077575;28;20062;-54
2022/03/18 03:54:16;;;;;;;9.70;5.55;;;;;;;0.52;nan;103857.50;5077345;28;20453;-52
2022/03/18 03:56:41;;;;;;;11.38;5.75;;;;;;;0.60;nan;103878.66;5095357;28;20043;-47
2022/03/18 03:59:07;;;;;;;10.68;5.82;;;;;;;0.93;nan;103947.09;5095218;28;20047;-52
2022/03/18 04:01:32;;;;;;;14.38;6.05;;;;;;;0.57;nan;103888.84;5095272;28;20036;-52
2022/03/18 04:03:58;;;;;;;8.57;5.03;;;;;;;0.44;nan;103865.63;5094814;28;20051;-49
2022/03/18 04:06:24;;;;;;;9.45;5.90;;;;;;;0.88;nan;103946.81;5095561;28;20055;-51
2022/03/18 04:08:49;;;;;;;14.55;6.30;;;;;;;0.86;nan;103938.06;5095111;28;20128;-53
2022/03/18 04:11:15;;;;;;;13.70;5.72;;;;;;;0.46;nan;103875.28;5095001;28;20035;-47
2022/03/18 04:13:40;;;;;;;15.18;5.93;;;;;;;0.87;nan;103958.00;5095053;28;20036;-51
2022/03/18 04:16:06;;;;;;;12.15;6.55;;;;;;;0.56;nan;103894.84;5094834;28;20035;-51
2022/03/18 04:18:31;;;;;;;16.02;6.35;;;;;;;0.85;nan;103969.97;5077034;28;20405;-51
2022/03/18 04:20:56;;;;;;;14.98;6.30;;;;;;;0.83;nan;103963.81;5094896;28;20494;-54
2022/03/18 04:23:22;;;;;;;9.02;5.97;;;;;;;0.40;nan;103881.81;5076738;28;20069;-49
2022/03/18 04:25:50;;;;;;;17.25;6.75;;;;;;;0.72;nan;103951.94;5093532;28;20038;-49
2022/03/18 04:28:16;;;;;;;10.95;5.80;;;;;;;0.74;nan;103965.88;5076590;28;20032;-52
2022/03/18 04:30:41;;;;;;;9.90;5.32;;;;;;;0.41;nan;103902.63;5087819;28;20056;-51
2022/03/18 04:33:07;;;;;;;12.23;5.45;;;;;;;0.79;nan;103979.13;5076279;28;20047;-50
2022/03/18 04:35:32;;;;;;;15.38;6.43;;;;;;;0.56;nan;103925.94;5094971;28;20475;-49
2022/03/18 04:37:58;;;;;;;11.18;5.55;;;;;;;0.37;nan;103898.09;5094363;28;20043;-50
2022/03/18 04:40:23;;;;;;;11.98;5.70;;;;;;;0.75;nan;103969.38;5076375;28;20036;-49
2022/03/18 04:42:49;;;;;;;19.85;6.65;;;;;;;0.72;nan;103966.59;5094486;28;20523;-47
2022/03/18 04:45:16;;;;;;;10.70;5.45;;;;;;;0.00;nan;103840.66;5094769;28;20554;-50
2022/03/18 04:47:41;;;;;;;13.10;5.95;;;;;;;0.50;nan;103928.16;5094330;28;20166;-52
2022/03/18 04:50:08;;;;;;;13.80;5.97;;;;;;;0.69;nan;103966.44;5094216;28;20111;-50
2022/03/18 04:52:33;;;;;;;10.02;5.90;;;;;;;0.67;nan;103975.81;5076246;28;20035;-47
2022/03/18 04:54:58;;;;;;;12.55;6.18;;;;;;;0.66;nan;103976.63;5094249;28;20110;-48
2022/03/18 04:57:24;;;;;;;13.85;7.35;;;;;;;0.63;nan;103982.53;5092787;28;20042;-53
2022/03/18 04:59:54;;;;;;;11.98;5.47;;;;;;;0.62;nan;103991.09;5094038;28;20040;-51
2022/03/18 05:02:24;;;;;;;12.75;5.78;;;;;;;0.63;nan;103981.63;5093061;28;20067;-51
2022/03/18 05:04:50;;;;;;;7.30;5.63;;;;;;;0.21;nan;103910.03;5076477;28;20394;-49
2022/03/18 05:07:17;;;;;;;11.90;5.85;;;;;;;0.24;nan;103918.91;5076058;28;20281;-50
2022/03/18 05:09:44;;;;;;;12.18;6.47;;;;;;;0.60;nan;103995.31;5075861;28;20036;-53
2022/03/18 05:12:11;;;;;;;12.02;5.30;;;;;;;0.58;nan;104002.97;5093934;28;20034;-51
2022/03/18 05:14:38;;;;;;;13.35;6.20;;;;;;;0.49;nan;103986.91;5076172;28;20131;-49
2022/03/18 05:17:04;;;;;;;14.18;6.22;;;;;;;0.51;nan;103997.34;5093795;28;20387;-48
2022/03/18 05:19:30;;;;;;;12.30;5.50;;;;;;;0.18;nan;103938.34;5059420;28;20040;-50
2022/03/18 05:21:55;;;;;;;11.82;5.35;;;;;;;0.55;nan;104002.78;5075545;28;20111;-49
2022/03/18 05:24:21;;;;;;;14.05;6.28;;;;;;;0.11;nan;103921.59;5093681;28;20043;-52
2022/03/18 05:26:46;;;;;;;11.98;6.20;;;;;;;0.20;nan;103953.22;5075822;28;20039;-49
2022/03/18 05:29:14;;;;;;;11.48;6.38;;;;;;;0.09;nan;103938.72;5093389;28;20490;-52
2022/03/18 05:31:39;;;;;;;11.52;5.95;;;;;;;0.50;nan;104014.59;5055608;28;20098;-51
2022/03/18 05:34:05;;;;;;;12.00;6.20;;;;;;;0.51;nan;104028.47;5073426;28;20498;-51
2022/03/18 05:36:31;;;;;;;15.13;6.70;;;;;;;0.51;nan;104039.72;5072082;28;20040;-50
2022/03/18 05:38:56;;;;;;;12.10;6.40;;;;;;;0.49;nan;104043.03;5073019;28;20399;-49
2022/03/18 05:41:21;;;;;;;15.52;6.60;;;;;;;0.17;nan;103986.72;5072067;28;20456;-51
2022/03/18 05:43:47;;;;;;;15.23;6.28;;;;;;;0.51;nan;104054.38;5072997;28;20574;-49
2022/03/18 05:46:12;;;;;;;14.18;6.68;;;;;;;0.43;nan;104048.75;5073495;28;20111;-50
2022/03/18 05:48:38;;;;;;;11.88;6.22;;;;;;;0.39;nan;104033.81;5072037;28;20039;-49
2022/03/18 05:51:03;;;;;;;11.82;6.45;;;;;;;0.51;nan;104065.66;5073017;28;20076;-52
2022/03/18 05:53:29;;;;;;;16.45;7.28;;;;;;;0.11;nan;103983.75;5071614;28;20036;-52
2022/03/18 05:58:39;;;;;;;16.58;7.22;;;;;;;0.57;nan;104062.53;5072124;28;20088;-54
2022/03/18 06:01:05;;;;;;;11.23;7.13;;;;;;;0.35;nan;104037.00;5072683;28;20103;-49
2022/03/18 06:03:30;;;;;;;10.27;7.05;;;;;;;0.57;nan;104080.66;5072891;28;20094;-51
2022/03/18 06:05:55;;;;;;;15.02;6.70;;;;;;;0.14;nan;103986.53;5072744;28;20464;-49
2022/03/18 06:13:49;;;;;;;14.88;7.57;;;;;;;0.65;nan;104071.63;5072597;28;20094;-51
2022/03/18 06:16:14;;;;;;;12.45;7.10;;;;;;;0.73;nan;104074.72;5072488;28;20028;-50
2022/03/18 06:18:39;;;;;;;17.08;7.20;;;;;;;0.68;nan;104058.84;5071153;28;20040;-55
2022/03/18 06:21:06;;;;;;;14.35;7.13;;;;;;;0.81;nan;104068.25;5071149;28;20040;-54
2022/03/18 06:23:32;;;;;;;10.93;7.20;;;;;;;0.47;nan;103998.88;5072418;28;20033;-49
2022/03/18 06:25:57;;;;;;;15.60;7.45;;;;;;;0.92;nan;104075.88;5072534;28;20486;-51
2022/03/18 06:28:23;;;;;;;16.98;7.70;;;;;;;0.56;nan;104012.38;5072566;28;20083;-51
2022/03/18 06:30:48;;;;;;;13.05;6.97;;;;;;;0.97;nan;104077.00;5072631;28;20218;-53
2022/03/18 06:33:13;;;;;;;18.58;8.18;;;;;;;1.13;nan;104091.78;5092453;28;20407;-49
2022/03/18 06:35:39;;;;;;;15.80;8.02;;;;;;;1.28;nan;104102.16;5080240;28;20483;-50
2022/03/18 06:38:04;;;;;;;13.18;7.80;;;;;;;1.46;nan;104098.00;5062760;28;20028;-53
2022/03/18 06:40:29;;;;;;;12.13;7.60;;;;;;;1.68;nan;104103.56;5054442;28;20174;-50
2022/03/18 06:42:55;;;;;;;17.30;8.02;;;;;;;1.86;nan;104093.31;5053682;28;20040;-50
2022/03/18 06:45:21;;;;;;;16.52;7.93;;;;;;;2.07;nan;104110.94;5072360;28;20029;-54
2022/03/18 06:47:47;;;;;;;12.68;8.00;;;;;;;2.22;nan;104123.88;5072525;28;20361;-52
2022/03/18 06:50:12;;;;;;;16.00;7.68;;;;;;;2.34;nan;104106.34;5071574;28;20040;-49
2022/03/18 06:52:38;;;;;;;13.98;8.18;;;;;;;2.40;nan;104097.97;5054083;28;20176;-51
2022/03/18 06:55:03;;;;;;;15.20;8.82;;;;;;;2.25;nan;104043.47;5072198;28;20035;-49
2022/03/18 06:57:29;;;;;;;17.40;8.43;;;;;;;2.80;nan;104120.91;5053673;28;20032;-50
2022/03/18 06:59:54;;;;;;;18.08;9.68;;;;;;;3.01;nan;104113.31;5071909;28;20033;-51
2022/03/18 07:02:19;;;;;;;16.10;7.82;;;;;;;3.20;nan;104122.94;5071914;28;20033;-51
2022/03/18 07:04:45;;;;;;;11.98;7.68;;;;;;;3.23;nan;104103.19;5071825;28;20062;-52
2022/03/18 07:07:11;;;;;;;13.35;7.35;;;;;;;3.52;nan;104127.13;5071872;28;20082;-50
2022/03/18 07:09:36;;;;;;;14.52;7.13;;;;;;;3.23;nan;104051.13;5071695;28;20036;-51
2022/03/18 07:12:02;;;;;;;12.07;7.72;;;;;;;3.79;nan;104121.56;5054195;28;20052;-50
2022/03/18 07:14:28;;;;;;;14.10;8.18;;;;;;;3.80;nan;104094.66;5071950;28;20037;-46
2022/03/18 07:19:38;;;;;;;17.00;9.23;;;;;;;4.40;nan;104121.78;5071630;28;20099;-51
2022/03/18 07:22:07;;;;;;;17.77;8.55;;;;;;;4.69;nan;104118.72;5053978;28;20075;-51
2022/03/18 07:24:32;;;;;;;17.35;9.18;;;;;;;5.04;nan;104108.09;5054684;28;20036;-49
2022/03/18 07:26:58;;;;;;;23.33;10.90;;;;;;;5.39;nan;104057.31;5075524;28;20048;-47
2022/03/18 07:29:23;;;;;;;18.17;9.77;;;;;;;6.21;nan;104052.66;5057379;28;20048;-49
2022/03/18 07:31:51;;;;;;;14.80;8.70;;;;;;;7.54;nan;104132.31;5057362;28;20488;-50
2022/03/18 07:34:16;;;;;;;14.05;8.05;;;;;;;8.16;nan;104126.41;5057741;28;20175;-48
2022/03/18 07:36:42;;;;;;;10.18;6.47;;;;;;;8.94;nan;104160.19;5057368;28;20111;-50
2022/03/18 07:39:07;;;;;;;13.45;6.90;;;;;;;9.33;nan;104126.19;5075680;28;20479;-48
2022/03/18 07:41:32;;;;;;;11.65;6.88;;;;;;;10.07;nan;104198.97;5057148;28;20040;-51
2022/03/18 07:43:58;;;;;;;11.27;6.13;;;;;;;10.19;nan;104158.06;5075435;28;20476;-50
2022/03/18 07:46:23;;;;;;;10.32;6.03;;;;;;;10.79;nan;104205.84;5075157;28;20144;-51
2022/03/18 07:48:48;;;;;;;8.57;5.53;;;;;;;11.27;nan;104238.41;5074748;28;20042;-48
2022/03/18 07:51:14;;;;;;;9.25;5.30;;;;;;;11.42;nan;104237.78;5074825;28;20036;-51
2022/03/18 07:53:39;;;;;;;9.30;4.68;;;;;;;11.98;nan;104250.25;5074686;28;20043;-50
2022/03/18 07:56:05;;;;;;;12.00;5.00;;;;;;;12.36;nan;104235.84;5056862;28;20039;-50
2022/03/18 07:58:30;;;;;;;10.35;5.38;;;;;;;12.95;nan;104260.44;5074203;28;20075;-52
2022/03/18 08:00:56;;;;;;;7.15;4.75;;;;;;;13.47;nan;104263.66;5057181;28;20032;-48
2022/03/18 08:03:21;;;;;;;9.20;4.00;;;;;;;13.66;nan;104248.84;5074722;28;20055;-52
2022/03/18 08:05:47;;;;;;;8.27;4.22;;;;;;;13.96;nan;104264.97;5074938;28;20377;-54
2022/03/18 08:08:13;;;;;;;12.90;4.95;;;;;;;;;;5075358;28;20032;-49
2022/03/18 08:10:38;;;;;;;8.35;3.88;;;;;;;;;;5056785;28;20033;-51
2022/03/18 08:13:03;;;;;;;10.37;4.53;;;;;;;;;;5074845;28;20083;-52
2022/03/18 08:15:29;;;;;;;6.88;4.15;;;;;;;;;;5074641;28;20294;-49
2022/03/18 08:17:54;;;;;;;6.03;3.83;;;;;;;;;;5074710;28;20043;-49
2022/03/18 08:20:20;;;;;;;7.88;3.83;;;;;;;;;;5074886;28;20040;-50
2022/03/18 08:22:46;;;;;;;5.60;2.83;;;;;;;;;;5074524;28;20029;-50
2022/03/18 08:25:11;;;;;;;9.27;3.80;;;;;;;;;;5073551;28;20113;-53
2022/03/18 08:27:37;;;;;;;7.90;3.83;;;;;;;;;;5073633;28;20044;-53
2022/03/18 08:30:03;;;;;;;9.20;4.20;;;;;;;;;;5073500;28;20282;-50
2022/03/18 08:32:29;;;;;;;7.60;3.13;;;;;;;;;;5072759;28;20056;-52
2022/03/18 08:34:55;;;;;;;8.93;4.13;;;;;;;;;;5073530;28;20025;-48
2022/03/18 08:37:56;;;;;;;8.68;3.15;;;;;;;;;;5073319;28;20453;-49
2022/03/18 08:40:06;;;;;;;11.48;3.50;;;;;;;;;;5073184;28;20072;-49
2022/03/18 08:42:31;;;;;;;9.73;3.50;;;;;;;;;;5073087;28;20130;-52
2022/03/18 08:44:56;;;;;;;8.18;3.40;;;;;;;;;;5073101;28;20094;-51
2022/03/18 08:47:23;;;;;;;8.20;3.20;;;;;;;;;;5055028;28;20036;-53
2022/03/18 08:49:48;;;;;;;7.43;3.70;;;;;;;;;;5073189;28;20279;-51
2022/03/18 08:52:14;;;;;;;7.32;3.72;;;;;;;;;;5073137;28;20051;-50
2022/03/18 08:54:39;;;;;;;8.98;3.78;;;;;;;;;;5072762;28;20036;-50
2022/03/18 08:57:04;;;;;;;9.67;4.30;;;;;;;;;;5072965;28;20056;-54
2022/03/18 08:59:29;;;;;;;9.82;4.20;;;;;;;;;;5072859;28;20336;-55
2022/03/18 09:01:55;;;;;;;7.47;3.60;;;;;;;;;;5072894;28;20467;-51
2022/03/18 09:04:20;;;;;;;10.73;4.07;;;;;;;;;;5072851;28;20551;-51
2022/03/18 09:06:46;;;;;;;7.87;3.73;;;;;;;;;;5072867;28;20286;-52
2022/03/18 09:09:11;;;;;;;9.00;3.22;;;;;;;;;;5073268;28;20043;-51
2022/03/18 09:11:37;;;;;;;8.03;3.30;;;;;;;;;;5054949;28;20040;-50
2022/03/18 09:14:02;;;;;;;6.30;3.33;;;;;;;;;;5072609;28;20028;-50
2022/03/18 09:16:27;;;;;;;12.70;3.42;;;;;;;;;;5072395;28;20279;-52
2022/03/18 09:18:52;;;;;;;8.07;3.60;;;;;;;;;;5072591;28;20037;-53
2022/03/18 09:21:18;;;;;;;9.33;4.00;;;;;;;;;;5054467;28;20051;-51
2022/03/18 09:23:43;;;;;;;8.00;3.47;;;;;;;;;;5072225;28;20044;-52
2022/03/18 09:26:08;;;;;;;8.23;3.33;;;;;;;;;;5072324;28;20020;-53
2022/03/18 09:28:33;;;;;;;13.10;3.83;;;;;;;;;;5072467;28;20305;-52
2022/03/18 09:30:58;;;;;;;7.83;3.50;;;;;;;;;;5072057;28;20080;-49
2022/03/18 09:33:24;;;;;;;8.57;4.00;;;;;;;;;;5072326;28;20286;-50
2022/03/18 09:35:49;;;;;;;9.30;3.57;;;;;;;;;;5071935;28;20347;-49
2022/03/18 09:38:14;;;;;;;12.57;3.77;;;;;;;;;;5071989;28;20294;-51
2022/03/18 09:40:41;;;;;;;11.13;4.10;;;;;;;;;;5071761;28;20287;-49
2022/03/18 09:43:07;;;;;;;8.57;4.00;;;;;;;;;;5071805;28;20444;-49
2022/03/18 09:45:34;;;;;;;8.43;4.03;;;;;;;;;;5072192;28;20040;-49
2022/03/18 09:48:00;;;;;;;6.88;3.42;;;;;;;;;;5071519;28;20051;-51
2022/03/18 09:50:26;;;;;;;8.00;4.00;;;;;;;;;;5054101;28;20032;-51
2022/03/18 09:52:51;;;;;;;7.32;3.42;;;;;;;;;;5053997;28;20039;-50
2022/03/18 09:55:17;;;;;;;14.68;4.40;;;;;;;;;;5071579;28;20036;-54
2022/03/18 09:57:42;;;;;;;9.45;4.07;;;;;;;;;;5071516;28;20483;-54
2022/03/18 10:00:08;;;;;;;10.67;4.30;;;;;;;;;;5071623;28;20090;-51
2022/03/18 10:02:34;;;;;;;9.00;3.90;;;;;;;;;;5071539;28;20333;-49
2022/03/18 10:04:59;;;;;;;9.77;3.75;;;;;;;;;;5071392;28;20028;-53
2022/03/18 10:07:25;;;;;;;9.10;3.90;;;;;;;;;;5071694;28;20028;-53
2022/03/18 10:10:00;;;;;;;10.45;3.65;;;;;;;;;;5071591;28;20301;-54
2022/03/18 10:12:29;;;;;;;11.98;4.20;;;;;;;;;;5071200;28;20503;-53
2022/03/18 10:15:03;;;;;;;10.63;4.07;;;;;;;;;;5071364;28;20424;-53
2022/03/18 10:17:37;;;;;;;9.90;3.95;;;;;;;;;;5071510;28;20028;-58
2022/03/18 10:20:02;;;;;;;8.10;3.95;;;;;;;;;;5071269;28;20586;-55
2022/03/18 10:22:28;;;;;;;7.35;3.95;;;;;;;;;;5071169;28;20123;-52
2022/03/18 10:24:53;;;;;;;9.45;4.13;;;;;;;;;;5053100;28;20036;-57
2022/03/18 10:27:20;;;;;;;5.60;3.50;;;;;;;;;;5070863;28;21879;-53
2022/03/18 10:29:49;;;;;;;7.45;3.22;;;;;;;;;;5053277;28;20298;-52
2022/03/18 10:32:15;;;;;;;6.47;3.17;;;;;;;;;;5070990;28;20504;-54
2022/03/18 10:37:50;;;;;;;8.38;3.67;;;;;;;20.84;nan;104398.81;5056235;28;20395;-53
2022/03/18 10:40:18;;;;;;;7.93;3.50;;;;;;;20.75;nan;104409.72;5071340;28;20025;-60
2022/03/18 10:43:03;;;;;;;8.27;3.40;;;;;;;20.89;nan;104404.97;5053223;28;20093;-54
2022/03/18 10:45:29;;;;;;;8.45;3.78;;;;;;;20.38;nan;104361.31;5070973;28;20047;-55
2022/03/18 10:48:10;;;;;;;9.68;3.72;;;;;;;20.46;nan;104378.09;5053002;28;20040;-53
2022/03/18 10:50:37;;;;;;;7.60;4.43;;;;;;;20.99;nan;104411.91;5053071;28;20120;-55
2022/03/18 10:53:11;;;;;;;9.32;3.60;;;;;;;20.99;nan;104347.63;5070584;28;20036;-54
2022/03/18 10:55:41;;;;;;;7.25;3.10;;;;;;;21.23;nan;104362.34;5070278;28;20090;-59
2022/03/18 10:58:11;;;;;;;6.95;3.58;;;;;;;20.82;nan;104357.81;5052466;28;20079;-55
2022/03/18 11:00:38;;;;;;;9.23;4.32;;;;;;;20.63;nan;104361.75;5073424;28;20033;-56
2022/03/18 11:03:04;;;;;;;7.30;4.07;;;;;;;21.27;nan;104407.81;5057227;28;20060;-52
2022/03/18 11:05:35;;;;;;;8.77;3.97;;;;;;;20.74;nan;104349.03;5057356;28;20036;-57
2022/03/18 11:08:05;;;;;;;9.43;4.13;;;;;;;21.92;nan;104424.22;5074924;28;20077;-55
2022/03/18 11:13:25;;;;;;;6.30;3.60;;;;;;;22.08;nan;104430.13;5059726;28;20246;-57
2022/03/18 11:15:50;;;;;;;7.88;3.38;;;;;;;;;;5056722;28;20025;-51
2022/03/18 11:18:16;;;;;;;6.47;3.45;;;;;;;22.09;nan;104376.44;5074720;28;20040;-57
2022/03/18 11:20:43;;;;;;;6.03;3.55;;;;;;;21.82;nan;104285.88;5074691;28;20041;-54
2022/03/18 11:23:16;;;;;;;7.05;3.60;;;;;;;;;;5074743;28;20047;-53
2022/03/18 11:25:41;;;;;;;8.30;4.00;;;;;;;;;;5056778;28;20414;-56
2022/03/18 11:28:07;;;;;;;6.85;3.42;;;;;;;;;;5074597;28;20108;-55
2022/03/18 11:30:36;;;;;;;9.57;4.10;;;;;;;;;;5074780;28;20028;-60
2022/03/18 11:33:10;;;;;;;5.72;3.53;;;;;;;;;;5074626;28;20052;-57
2022/03/18 11:35:45;;;;;;;5.95;3.58;;;;;;;;;;5074473;28;20052;-56
2022/03/18 11:38:10;;;;;;;10.27;3.78;;;;;;;;;;5074474;28;20064;-55
2022/03/18 11:40:35;;;;;;;6.10;3.40;;;;;;;;;;5056477;28;20060;-53
2022/03/18 11:43:21;;;;;;;7.20;3.92;;;;;;;;;;5074461;28;20446;-60
2022/03/18 11:45:46;;;;;;;7.35;3.75;;;;;;;;;;5056270;28;20056;-55
2022/03/18 11:48:31;;;;;;;7.33;3.60;;;;;;;;;;5074282;28;20033;-56
2022/03/18 11:50:57;;;;;;;7.60;4.05;;;;;;;;;;5074395;28;20305;-52
2022/03/18 11:53:51;;;;;;;7.95;3.65;;;;;;;;;;5074056;28;20075;-59
2022/03/18 11:56:17;;;;;;;11.65;3.70;;;;;;;;;;5070625;28;20144;-57
2022/03/18 11:58:43;;;;;;;8.38;3.83;;;;;;;;;;5074205;28;20129;-54
2022/03/18 12:01:29;;;;;;;6.50;4.10;;;;;;;;;;5073878;28;20105;-56
2022/03/18 12:03:55;;;;;;;7.05;3.80;;;;;;;;;;5073743;28;20029;-56
2022/03/18 12:06:20;;;;;;;10.38;4.68;;;;;;;;;;5073815;28;20553;-55
2022/03/18 12:08:51;;;;;;;6.80;4.00;;;;;;;;;;5073753;28;20028;-54
2022/03/18 12:11:43;;;;;;;9.10;4.32;;;;;;;;;;5055220;28;20638;-59
2022/03/18 12:14:10;;;;;;;6.57;3.25;;;;;;;;;;5068710;28;20049;-53
2022/03/18 12:16:35;;;;;;;9.25;3.83;;;;;;;;;;5073563;28;20043;-56
2022/03/18 12:19:01;;;;;;;6.87;3.80;;;;;;;;;;5073475;28;20037;-52
2022/03/18 12:21:37;;;;;;;7.53;3.22;;;;;;;;;;5073381;28;20455;-55
2022/03/18 12:24:06;;;;;;;8.20;4.25;;;;;;;;;;5073412;28;20028;-56
2022/03/18 12:26:33;;;;;;;7.28;3.80;;;;;;;;;;5073711;28;20016;-55
2022/03/18 12:28:58;;;;;;;6.80;3.53;;;;;;;;;;5073733;28;20111;-60
2022/03/18 12:31:23;;;;;;;5.35;2.78;;;;;;;;;;5073324;28;20445;-54
2022/03/18 12:33:55;;;;;;;6.90;2.60;;;;;;;;;;5073430;28;20032;-53
2022/03/18 12:36:27;;;;;;;8.30;3.30;;;;;;;;;;5073109;28;20029;-52
2022/03/18 12:39:18;;;;;;;7.25;2.83;;;;;;;;;;5073237;28;20462;-54
2022/03/18 12:41:45;;;;;;;7.97;2.95;;;;;;;;;;5067988;28;20123;-51
2022/03/18 12:44:10;;;;;;;6.50;2.63;;;;;;;;;;5073194;28;20076;-55
2022/03/18 12:46:36;;;;;;;6.07;3.17;;;;;;;;;;5072985;28;20056;-54
2022/03/18 12:49:01;;;;;;;7.82;2.90;;;;;;;;;;5073138;28;20094;-59
2022/03/18 12:51:27;;;;;;;5.25;2.90;;;;;;;;;;5072972;28;20040;-54
2022/03/18 12:53:52;;;;;;;6.97;2.67;;;;;;;;;;5072900;28;20071;-51
2022/03/18 12:56:22;;;;;;;6.93;3.27;;;;;;;;;;5073074;28;20047;-54
2022/03/18 12:58:47;;;;;;;8.95;3.70;;;;;;;;;;5055840;28;20638;-54